createdAt,value
2017-09-15T00:00:33.353Z,91.40
2017-09-15T00:03:02.319Z,91.30
2017-09-15T00:05:32.629Z,91.50
2017-09-15T00:08:02.123Z,91.30
2017-09-15T00:10:32.874Z,91.10
2017-09-15T00:13:03.849Z,91.30
2017-09-15T00:15:33.939Z,91.20
2017-09-15T00:18:04.723Z,91.20
2017-09-15T00:20:32.382Z,91.20
2017-09-15T00:22:59.868Z,91.00
2017-09-15T00:25:27.357Z,91.10
2017-09-15T00:27:54.853Z,91.20
2017-09-15T00:30:22.338Z,91.40
2017-09-15T00:32:50.586Z,91.60
2017-09-15T00:35:18.078Z,91.50
2017-09-15T00:37:45.568Z,91.50
2017-09-15T00:40:13.055Z,91.50
2017-09-15T00:42:40.551Z,91.30
2017-09-15T00:45:08.793Z,91.70
2017-09-15T00:47:36.282Z,91.70
2017-09-15T00:50:04.534Z,91.90
2017-09-15T00:52:32.026Z,91.90
2017-09-15T00:55:00.270Z,92.20
2017-09-15T00:57:27.768Z,92.20
2017-09-15T00:59:55.263Z,91.30
2017-09-15T01:02:22.754Z,91.30
2017-09-15T01:04:50.229Z,91.80
2017-09-15T01:07:18.496Z,92.30
2017-09-15T01:09:46.752Z,92.10
2017-09-15T01:12:14.244Z,92.10
2017-09-15T01:14:42.494Z,92.10
2017-09-15T01:17:10.008Z,92.00
2017-09-15T01:19:37.485Z,92.20
2017-09-15T01:22:04.980Z,92.20
2017-09-15T01:24:33.243Z,92.20
2017-09-15T01:27:00.734Z,92.20
2017-09-15T01:29:28.987Z,92.20
2017-09-15T01:31:57.238Z,92.30
2017-09-15T01:34:24.722Z,92.30
2017-09-15T01:36:53.705Z,92.50
2017-09-15T01:39:21.182Z,92.50
2017-09-15T01:41:49.444Z,92.60
2017-09-15T01:44:16.934Z,92.50
2017-09-15T01:46:45.179Z,92.60
2017-09-15T01:49:12.662Z,92.60
2017-09-15T01:51:40.905Z,92.50
2017-09-15T01:54:08.395Z,92.50
2017-09-15T01:56:36.655Z,92.40
2017-09-15T01:59:04.147Z,92.10
2017-09-15T02:01:32.403Z,91.30
2017-09-15T02:04:00.661Z,92.50
2017-09-15T02:06:28.142Z,92.10
2017-09-15T02:08:56.402Z,92.00
2017-09-15T02:11:23.894Z,92.30
2017-09-15T02:13:52.171Z,92.50
2017-09-15T02:16:20.414Z,92.60
2017-09-15T02:18:47.903Z,92.60
2017-09-15T02:21:16.158Z,92.70
2017-09-15T02:23:44.427Z,92.70
2017-09-15T02:26:11.908Z,92.70
2017-09-15T02:28:40.158Z,92.60
2017-09-15T02:31:07.637Z,92.60
2017-09-15T02:33:35.881Z,92.90
2017-09-15T02:36:03.358Z,92.90
2017-09-15T02:38:30.841Z,92.40
2017-09-15T02:40:59.088Z,92.30
2017-09-15T02:43:26.579Z,92.30
2017-09-15T02:45:54.827Z,92.90
2017-09-15T02:48:22.314Z,92.90
2017-09-15T02:50:50.564Z,93.10
2017-09-15T02:53:18.037Z,93.10
2017-09-15T02:55:46.293Z,92.40
2017-09-15T02:58:13.772Z,92.30
2017-09-15T03:00:42.759Z,92.70
2017-09-15T03:03:10.236Z,92.70
2017-09-15T03:05:38.486Z,93.40
2017-09-15T03:08:05.962Z,93.40
2017-09-15T03:10:34.963Z,92.30
2017-09-15T03:13:03.221Z,92.80
2017-09-15T03:15:30.716Z,92.80
2017-09-15T03:17:58.971Z,92.70
2017-09-15T03:20:27.225Z,93.20
2017-09-15T03:22:54.718Z,93.20
2017-09-15T03:25:22.975Z,93.60
2017-09-15T03:27:50.463Z,93.60
2017-09-15T03:30:18.725Z,93.60
2017-09-15T03:32:46.990Z,93.70
2017-09-15T03:35:15.263Z,93.70
2017-09-15T03:37:42.741Z,93.70
2017-09-15T03:40:10.977Z,93.70
2017-09-15T03:42:38.463Z,93.70
2017-09-15T03:45:05.945Z,93.70
2017-09-15T03:47:34.185Z,93.80
2017-09-15T03:50:01.671Z,93.80
2017-09-15T03:52:29.922Z,93.00
2017-09-15T03:54:57.416Z,93.00
2017-09-15T03:57:25.672Z,93.20
2017-09-15T03:59:54.657Z,93.60
2017-09-15T04:02:22.143Z,93.60
2017-09-15T04:04:50.398Z,94.10
2017-09-15T04:07:18.646Z,94.30
2017-09-15T04:09:46.144Z,94.30
2017-09-15T04:12:14.398Z,92.70
2017-09-15T04:14:41.878Z,92.40
2017-09-15T04:17:10.128Z,93.40
2017-09-15T04:19:37.623Z,93.40
2017-09-15T04:22:05.870Z,94.10
2017-09-15T04:24:33.354Z,94.10
2017-09-15T04:27:01.615Z,94.00
2017-09-15T04:29:29.108Z,94.00
2017-09-15T04:31:56.598Z,94.30
2017-09-15T04:34:24.083Z,94.10
2017-09-15T04:36:51.571Z,94.20
2017-09-15T04:39:19.822Z,94.30
2017-09-15T04:41:47.307Z,94.30
2017-09-15T04:44:15.564Z,94.80
2017-09-15T04:46:43.047Z,94.70
2017-09-15T04:49:11.293Z,92.90
2017-09-15T04:51:38.793Z,92.90
2017-09-15T04:54:06.279Z,92.50
2017-09-15T04:56:33.759Z,92.40
2017-09-15T04:59:01.251Z,93.80
2017-09-15T05:01:29.503Z,93.30
2017-09-15T05:03:57.003Z,93.30
2017-09-15T05:06:25.245Z,93.50
2017-09-15T05:08:52.734Z,93.50
2017-09-15T05:11:20.998Z,93.60
2017-09-15T05:13:49.255Z,93.70
2017-09-15T05:16:16.755Z,93.70
2017-09-15T05:18:44.234Z,93.30
2017-09-15T05:21:11.709Z,94.30
2017-09-15T05:23:39.201Z,93.00
2017-09-15T05:26:07.445Z,93.50
2017-09-15T05:28:34.936Z,93.50
2017-09-15T05:31:03.942Z,94.10
2017-09-15T05:33:32.229Z,94.00
2017-09-15T05:36:00.482Z,94.30
2017-09-15T05:38:27.969Z,94.30
2017-09-15T05:40:56.226Z,93.80
2017-09-15T05:43:24.480Z,94.90
2017-09-15T05:45:51.970Z,94.80
2017-09-15T05:48:20.230Z,94.80
2017-09-15T05:50:48.488Z,94.40
2017-09-15T05:53:15.984Z,94.40
2017-09-15T05:55:44.264Z,94.30
2017-09-15T05:58:12.518Z,94.30
2017-09-15T06:00:40.012Z,94.30
2017-09-15T06:03:07.503Z,93.90
2017-09-15T06:05:34.990Z,93.20
2017-09-15T06:08:02.481Z,92.10
2017-09-15T06:10:30.734Z,90.10
2017-09-15T06:12:58.210Z,90.10
2017-09-15T06:15:26.467Z,86.40
2017-09-15T06:17:53.950Z,86.40
2017-09-15T06:20:22.192Z,84.60
2017-09-15T06:22:49.687Z,84.40
2017-09-15T06:25:17.938Z,82.20
2017-09-15T06:27:46.206Z,87.50
2017-09-15T06:30:13.704Z,87.60
2017-09-15T06:32:41.955Z,81.00
2017-09-15T06:35:09.438Z,80.80
2017-09-15T06:37:37.703Z,80.40
2017-09-15T06:40:05.966Z,81.50
2017-09-15T06:42:33.459Z,82.00
2017-09-15T06:45:01.708Z,81.90
2017-09-15T06:47:30.700Z,79.40
2017-09-15T06:49:58.957Z,80.40
2017-09-15T06:52:26.454Z,80.30
2017-09-15T06:54:54.724Z,79.60
2017-09-15T06:57:22.988Z,79.90
2017-09-15T06:59:50.472Z,79.10
2017-09-15T07:02:18.737Z,76.30
2017-09-15T07:04:47.015Z,84.60
2017-09-15T07:07:15.283Z,70.00
2017-09-15T07:09:43.540Z,69.40
2017-09-15T07:12:11.033Z,69.30
2017-09-15T07:14:39.290Z,69.50
2017-09-15T07:17:06.784Z,69.40
2017-09-15T07:19:34.283Z,70.10
2017-09-15T07:22:01.790Z,73.90
2017-09-15T07:24:30.068Z,70.90
2017-09-15T07:26:58.318Z,77.10
2017-09-15T07:29:25.807Z,77.00
2017-09-15T07:31:54.072Z,70.40
2017-09-15T07:34:22.319Z,70.30
2017-09-15T07:36:49.810Z,70.60
2017-09-15T07:39:18.064Z,72.90
2017-09-15T07:41:45.546Z,72.30
2017-09-15T07:44:13.814Z,75.10
2017-09-15T07:46:41.284Z,74.20
2017-09-15T07:49:09.590Z,69.40
2017-09-15T07:51:37.079Z,69.30
2017-09-15T07:54:04.613Z,72.00
2017-09-15T07:56:32.100Z,70.60
2017-09-15T07:58:59.587Z,71.10
2017-09-15T08:01:27.065Z,71.50
2017-09-15T08:03:55.319Z,74.10
2017-09-15T08:06:22.816Z,74.00
2017-09-15T08:08:50.300Z,72.50
2017-09-15T08:11:17.788Z,72.70
2017-09-15T08:13:45.287Z,73.30
2017-09-15T08:16:12.768Z,74.00
2017-09-15T08:18:40.246Z,73.90
2017-09-15T08:21:07.734Z,75.80
2017-09-15T08:23:36.723Z,73.60
2017-09-15T08:26:04.206Z,73.60
2017-09-15T08:28:32.450Z,74.70
2017-09-15T08:30:59.935Z,74.60
2017-09-15T08:33:28.181Z,77.00
2017-09-15T08:35:55.761Z,76.00
2017-09-15T08:38:24.018Z,74.00
2017-09-15T08:40:51.506Z,74.00
2017-09-15T08:43:19.768Z,74.20
2017-09-15T08:45:48.758Z,73.30
2017-09-15T08:48:16.234Z,73.20
2017-09-15T08:50:44.482Z,74.60
2017-09-15T08:53:11.965Z,74.50
2017-09-15T08:55:39.441Z,75.00
2017-09-15T08:58:07.697Z,75.00
2017-09-15T09:00:35.956Z,73.70
2017-09-15T09:03:03.450Z,73.50
2017-09-15T09:05:31.696Z,73.70
2017-09-15T09:07:59.174Z,73.70
2017-09-15T09:10:27.440Z,74.60
2017-09-15T09:12:54.941Z,74.40
2017-09-15T09:15:22.454Z,75.80
2017-09-15T09:17:49.942Z,74.00
2017-09-15T09:20:18.185Z,80.50
2017-09-15T09:22:45.677Z,79.50
2017-09-15T09:25:13.930Z,76.00
2017-09-15T09:27:41.418Z,75.20
2017-09-15T09:30:09.674Z,73.90
2017-09-15T09:32:37.158Z,73.70
2017-09-15T09:35:05.418Z,77.00
2017-09-15T09:37:33.674Z,73.10
2017-09-15T09:40:01.164Z,72.90
2017-09-15T09:42:29.413Z,70.80
2017-09-15T09:44:56.902Z,70.70
2017-09-15T09:47:25.154Z,72.20
2017-09-15T09:49:53.393Z,71.80
2017-09-15T09:52:20.882Z,71.80
2017-09-15T09:54:48.379Z,72.00
2017-09-15T09:57:16.645Z,74.20
2017-09-15T09:59:44.903Z,70.20
2017-09-15T10:02:12.414Z,70.10
2017-09-15T10:04:39.901Z,71.40
2017-09-15T10:07:07.394Z,75.20
2017-09-15T10:09:35.651Z,74.70
2017-09-15T10:12:03.139Z,73.80
2017-09-15T10:14:31.389Z,74.30
2017-09-15T10:16:59.685Z,75.30
2017-09-15T10:19:27.941Z,72.00
2017-09-15T10:21:55.431Z,71.90
2017-09-15T10:24:22.931Z,73.70
2017-09-15T10:26:50.423Z,75.30
2017-09-15T10:29:17.901Z,74.80
2017-09-15T10:31:46.145Z,73.20
2017-09-15T10:34:13.635Z,73.00
2017-09-15T10:36:41.888Z,73.10
2017-09-15T10:39:09.376Z,73.30
2017-09-15T10:41:37.645Z,74.10
2017-09-15T10:44:05.894Z,74.40
2017-09-15T10:46:33.378Z,74.40
2017-09-15T10:49:00.864Z,76.10
2017-09-15T10:51:28.352Z,74.60
2017-09-15T10:53:55.829Z,76.50
2017-09-15T10:56:23.318Z,73.20
2017-09-15T10:58:57.176Z,71.80
2017-09-15T11:01:24.664Z,71.80
2017-09-15T11:03:52.163Z,74.80
2017-09-15T11:06:19.652Z,74.30
2017-09-15T11:08:47.139Z,74.70
2017-09-15T11:11:14.646Z,75.60
2017-09-15T11:13:42.137Z,75.10
2017-09-15T11:16:09.638Z,77.00
2017-09-15T11:18:37.885Z,74.40
2017-09-15T11:21:05.374Z,74.30
2017-09-15T11:23:33.631Z,75.20
2017-09-15T11:26:01.123Z,75.20
2017-09-15T11:28:29.394Z,75.40
2017-09-15T11:30:57.657Z,77.60
2017-09-15T11:33:25.918Z,76.60
2017-09-15T11:35:53.399Z,76.60
2017-09-15T11:38:21.662Z,76.60
2017-09-15T11:40:49.155Z,76.60
2017-09-15T11:43:17.428Z,76.80
2017-09-15T11:45:45.712Z,76.40
2017-09-15T11:48:13.950Z,79.00
2017-09-15T11:50:41.435Z,79.10
2017-09-15T11:53:09.699Z,80.40
2017-09-15T11:55:37.963Z,82.80
2017-09-15T11:58:05.454Z,82.40
2017-09-15T12:00:33.709Z,84.40
2017-09-15T12:03:01.967Z,85.30
2017-09-15T12:05:29.451Z,85.40
2017-09-15T12:07:57.713Z,86.90
2017-09-15T12:10:25.981Z,85.20
2017-09-15T12:12:53.474Z,85.30
2017-09-15T12:15:21.726Z,87.20
2017-09-15T12:17:50.745Z,89.80
2017-09-15T12:20:18.991Z,90.60
2017-09-15T12:22:46.510Z,90.60
2017-09-15T12:25:14.004Z,91.00
2017-09-15T12:27:41.501Z,91.30
2017-09-15T12:30:09.771Z,97.40
2017-09-15T12:32:38.026Z,93.00
2017-09-15T12:35:05.514Z,92.90
2017-09-15T12:37:33.787Z,91.70
2017-09-15T12:40:02.041Z,92.80
2017-09-15T12:42:29.527Z,93.40
2017-09-15T12:44:57.778Z,92.00
2017-09-15T12:47:25.299Z,92.00
2017-09-15T12:49:52.783Z,92.10
2017-09-15T12:52:20.270Z,91.30
2017-09-15T12:54:47.757Z,90.80
2017-09-15T12:57:15.248Z,92.10
2017-09-15T12:59:42.729Z,90.80
2017-09-15T13:02:10.250Z,91.20
2017-09-15T13:04:37.727Z,91.00
2017-09-15T13:07:05.225Z,90.70
2017-09-15T13:09:33.487Z,90.60
2017-09-15T13:12:00.977Z,90.50
2017-09-15T13:14:29.241Z,89.80
2017-09-15T13:16:57.491Z,89.90
2017-09-15T13:19:24.973Z,89.80
2017-09-15T13:21:52.462Z,89.70
2017-09-15T13:24:19.971Z,88.20
2017-09-15T13:26:47.465Z,90.50
2017-09-15T13:29:15.749Z,89.70
2017-09-15T13:31:44.010Z,90.00
2017-09-15T13:34:12.269Z,88.40
2017-09-15T13:36:40.536Z,86.10
2017-09-15T13:39:08.026Z,86.10
2017-09-15T13:41:36.280Z,88.30
2017-09-15T13:44:04.531Z,84.90
2017-09-15T13:46:32.023Z,84.80
2017-09-15T13:48:59.523Z,85.80
2017-09-15T13:51:27.011Z,84.30
2017-09-15T13:53:54.502Z,83.90
2017-09-15T13:56:23.502Z,85.00
2017-09-15T13:58:50.985Z,85.00
2017-09-15T14:01:19.229Z,83.80
2017-09-15T14:03:48.242Z,82.80
2017-09-15T14:06:16.505Z,83.20
2017-09-15T14:08:43.986Z,83.00
2017-09-15T14:11:12.249Z,84.30
2017-09-15T14:13:40.502Z,83.70
2017-09-15T14:16:08.016Z,82.80
2017-09-15T14:18:35.513Z,82.40
2017-09-15T14:21:03.007Z,83.40
2017-09-15T14:23:31.253Z,84.30
2017-09-15T14:25:58.739Z,83.50
2017-09-15T14:28:27.010Z,83.10
2017-09-15T14:30:54.494Z,83.00
2017-09-15T14:33:23.502Z,83.90
2017-09-15T14:35:50.989Z,83.90
2017-09-15T14:38:18.487Z,84.70
2017-09-15T14:40:46.741Z,85.00
2017-09-15T14:43:14.234Z,84.40
2017-09-15T14:45:42.480Z,85.80
2017-09-15T14:48:09.980Z,85.90
2017-09-15T14:50:37.473Z,84.10
2017-09-15T14:53:04.994Z,85.70
2017-09-15T14:55:33.974Z,85.30
2017-09-15T14:58:02.230Z,86.60
2017-09-15T15:00:29.723Z,86.40
2017-09-15T15:02:57.988Z,84.50
2017-09-15T15:05:26.255Z,86.90
2017-09-15T15:07:53.751Z,87.10
2017-09-15T15:10:21.232Z,88.00
2017-09-15T15:12:48.733Z,90.10
2017-09-15T15:15:16.226Z,86.80
2017-09-15T15:17:43.713Z,88.30
2017-09-15T15:20:11.227Z,89.50
2017-09-15T15:22:39.496Z,89.20
2017-09-15T15:25:07.745Z,88.80
2017-09-15T15:27:35.235Z,88.80
2017-09-15T15:30:03.490Z,88.50
2017-09-15T15:32:30.991Z,88.40
2017-09-15T15:34:58.474Z,88.60
2017-09-15T15:37:25.957Z,90.10
2017-09-15T15:39:53.447Z,90.20
2017-09-15T15:42:21.704Z,88.50
2017-09-15T15:44:49.195Z,88.50
2017-09-15T15:47:17.441Z,87.10
2017-09-15T15:49:44.930Z,87.10
2017-09-15T15:52:13.194Z,88.80
2017-09-15T15:54:41.452Z,88.80
2017-09-15T15:57:10.462Z,88.80
2017-09-15T15:59:38.719Z,88.20
2017-09-15T16:02:06.211Z,88.20
2017-09-15T16:04:34.470Z,88.30
2017-09-15T16:07:03.477Z,86.60
2017-09-15T16:09:31.732Z,87.20
2017-09-15T16:11:59.988Z,88.00
2017-09-15T16:14:27.469Z,88.00
2017-09-15T16:16:54.971Z,86.80
2017-09-15T16:19:22.453Z,87.00
2017-09-15T16:21:49.961Z,86.90
2017-09-15T16:24:17.443Z,87.10
2017-09-15T16:26:45.703Z,87.70
2017-09-15T16:29:13.954Z,88.00
2017-09-15T16:31:41.442Z,87.90
2017-09-15T16:34:09.682Z,89.80
2017-09-15T16:36:37.153Z,89.70
2017-09-15T16:39:10.259Z,89.50
2017-09-15T16:41:44.343Z,90.70
2017-09-15T16:44:17.587Z,90.70
2017-09-15T16:46:51.547Z,90.50
2017-09-15T16:49:24.715Z,90.50
2017-09-15T16:51:52.204Z,91.60
2017-09-15T16:54:19.685Z,90.50
2017-09-15T16:56:47.947Z,90.00
2017-09-15T16:59:15.429Z,90.30
2017-09-15T17:01:43.693Z,90.40
2017-09-15T17:04:12.691Z,90.70
2017-09-15T17:06:40.949Z,91.40
2017-09-15T17:09:08.489Z,91.40
2017-09-15T17:11:35.978Z,90.70
2017-09-15T17:14:03.479Z,90.90
2017-09-15T17:16:30.953Z,90.30
2017-09-15T17:18:58.431Z,91.00
2017-09-15T17:21:25.914Z,91.50
2017-09-15T17:23:54.157Z,91.20
2017-09-15T17:26:21.637Z,91.20
2017-09-15T17:28:49.119Z,91.20
2017-09-15T17:31:16.608Z,91.30
2017-09-15T17:33:44.086Z,91.20
2017-09-15T17:36:11.566Z,91.60
2017-09-15T17:38:39.058Z,91.50
2017-09-15T17:41:07.310Z,91.40
2017-09-15T17:43:34.799Z,91.40
2017-09-15T17:46:03.050Z,92.50
2017-09-15T17:48:30.548Z,92.20
2017-09-15T17:50:58.802Z,93.00
2017-09-15T17:53:27.065Z,92.40
2017-09-15T17:55:54.548Z,92.50
2017-09-15T17:58:22.792Z,93.40
2017-09-15T18:00:50.287Z,93.30
2017-09-15T18:03:18.534Z,93.40
2017-09-15T18:05:46.049Z,93.40
2017-09-15T18:08:13.546Z,93.30
2017-09-15T18:10:41.031Z,93.20
2017-09-15T18:13:09.289Z,93.10
2017-09-15T18:15:36.775Z,93.00
2017-09-15T18:18:05.038Z,93.30
2017-09-15T18:20:34.030Z,93.30
2017-09-15T18:23:02.288Z,93.60
2017-09-15T18:25:29.774Z,93.60
2017-09-15T18:27:57.259Z,93.90
2017-09-15T18:30:24.835Z,94.40
2017-09-15T18:32:52.326Z,93.10
2017-09-15T18:35:19.814Z,92.50
2017-09-15T18:37:48.054Z,93.20
2017-09-15T18:40:15.545Z,93.10
2017-09-15T18:42:43.812Z,92.30
2017-09-15T18:45:11.294Z,92.30
2017-09-15T18:47:39.612Z,92.50
2017-09-15T18:50:07.102Z,92.40
2017-09-15T18:52:34.594Z,91.90
2017-09-15T18:55:02.859Z,92.00
2017-09-15T18:57:31.148Z,91.60
2017-09-15T18:59:59.409Z,91.60
2017-09-15T19:02:27.686Z,90.80
2017-09-15T19:04:55.939Z,91.30
2017-09-15T19:07:23.439Z,91.30
2017-09-15T19:09:51.686Z,91.90
2017-09-15T19:12:19.191Z,91.90
2017-09-15T19:14:46.688Z,91.80
2017-09-15T19:17:14.180Z,92.10
2017-09-15T19:19:42.444Z,90.60
2017-09-15T19:22:09.936Z,90.60
2017-09-15T19:24:37.563Z,90.90
2017-09-15T19:27:05.489Z,91.90
2017-09-15T19:29:33.456Z,91.70
2017-09-15T19:32:01.225Z,91.50
2017-09-15T19:34:31.036Z,91.30
2017-09-15T19:37:00.516Z,91.60
2017-09-15T19:39:28.853Z,90.10
2017-09-15T19:41:56.337Z,90.00
2017-09-15T19:44:24.586Z,90.40
2017-09-15T19:46:52.079Z,90.40
2017-09-15T19:49:20.340Z,90.30
2017-09-15T19:51:47.816Z,90.10
2017-09-15T19:54:16.093Z,90.10
2017-09-15T19:56:44.493Z,85.80
2017-09-15T19:59:12.079Z,86.40
2017-09-15T20:01:39.591Z,88.00
2017-09-15T20:04:08.058Z,89.60
2017-09-15T20:06:35.908Z,90.00
2017-09-15T20:09:03.896Z,90.50
2017-09-15T20:11:31.616Z,87.40
2017-09-15T20:13:59.683Z,88.70
2017-09-15T20:16:28.482Z,90.20
2017-09-15T20:18:56.346Z,91.00
2017-09-15T20:21:23.843Z,90.30
2017-09-15T20:23:52.118Z,90.60
2017-09-15T20:26:19.619Z,90.60
2017-09-15T20:28:47.110Z,91.10
2017-09-15T20:31:14.593Z,90.30
2017-09-15T20:33:42.082Z,88.70
2017-09-15T20:36:10.346Z,88.20
2017-09-15T20:38:38.603Z,89.60
2017-09-15T20:41:06.085Z,89.20
2017-09-15T20:43:34.412Z,91.20
2017-09-15T20:46:01.903Z,91.00
2017-09-15T20:48:29.655Z,91.40
2017-09-15T20:50:57.954Z,91.40
2017-09-15T20:53:26.172Z,91.30
2017-09-15T20:55:53.775Z,90.80
2017-09-15T20:58:21.888Z,90.30
2017-09-15T21:00:50.817Z,90.70
2017-09-15T21:03:18.371Z,90.70
2017-09-15T21:05:45.982Z,92.10
2017-09-15T21:08:13.922Z,91.50
2017-09-15T21:10:42.800Z,92.40
2017-09-15T21:13:10.668Z,92.40
2017-09-15T21:15:38.375Z,92.80
2017-09-15T21:18:05.891Z,91.90
2017-09-15T21:20:33.384Z,92.60
2017-09-15T21:23:01.422Z,92.40
2017-09-15T21:25:29.482Z,92.20
2017-09-15T21:27:57.157Z,92.30
2017-09-15T21:30:25.539Z,93.00
2017-09-15T21:32:53.619Z,93.50
2017-09-15T21:35:21.667Z,92.90
2017-09-15T21:37:50.109Z,92.90
2017-09-15T21:40:18.851Z,93.80
2017-09-15T21:42:47.072Z,93.80
2017-09-15T21:45:15.467Z,94.10
2017-09-15T21:47:43.075Z,94.90
2017-09-15T21:50:11.046Z,95.80
2017-09-15T21:52:39.015Z,96.60
2017-09-15T21:55:06.917Z,96.80
2017-09-15T21:57:35.850Z,96.60
2017-09-15T22:00:04.514Z,96.40
2017-09-15T22:02:33.195Z,96.70
2017-09-15T22:05:00.893Z,96.60
2017-09-15T22:07:28.847Z,96.50
2017-09-15T22:09:57.492Z,96.70
2017-09-15T22:12:25.498Z,96.70
2017-09-15T22:14:54.286Z,96.30
2017-09-15T22:17:22.908Z,96.10
2017-09-15T22:19:51.088Z,96.10
2017-09-15T22:22:19.134Z,96.70
2017-09-15T22:24:47.539Z,96.60
2017-09-15T22:27:15.325Z,96.50
2017-09-15T22:29:42.846Z,96.70
2017-09-15T22:32:10.490Z,97.30
2017-09-15T22:34:38.738Z,96.90
2017-09-15T22:37:06.229Z,96.90
2017-09-15T22:39:34.478Z,96.50
2017-09-15T22:42:01.957Z,96.40
2017-09-15T22:44:30.215Z,95.90
2017-09-15T22:46:57.706Z,95.80
2017-09-15T22:49:25.964Z,96.50
2017-09-15T22:51:53.463Z,96.50
2017-09-15T22:54:30.805Z,96.60
2017-09-15T22:56:58.303Z,96.10
2017-09-15T22:59:25.785Z,96.10
2017-09-15T23:01:53.279Z,95.80
2017-09-15T23:04:20.761Z,95.90
2017-09-15T23:06:49.080Z,96.00
2017-09-15T23:09:16.579Z,96.00
2017-09-15T23:11:44.057Z,95.90
2017-09-15T23:14:12.301Z,96.00
2017-09-15T23:16:39.790Z,96.00
2017-09-15T23:19:08.039Z,96.20
2017-09-15T23:21:35.521Z,96.20
2017-09-15T23:24:03.786Z,95.80
2017-09-15T23:26:31.283Z,95.80
2017-09-15T23:28:58.777Z,96.60
2017-09-15T23:31:26.264Z,95.50
2017-09-15T23:33:53.754Z,96.10
2017-09-15T23:36:22.017Z,96.40
2017-09-15T23:38:50.269Z,95.90
2017-09-15T23:41:17.755Z,95.90
2017-09-15T23:43:46.018Z,95.80
2017-09-15T23:46:13.514Z,95.80
2017-09-15T23:48:41.007Z,95.90
2017-09-15T23:51:08.486Z,96.60
2017-09-15T23:53:35.995Z,96.60
2017-09-15T23:56:03.482Z,96.20
2017-09-15T23:58:30.973Z,96.40
